Search METAR Data

METAR Data for ENGM:

ENGM 301220Z 17005KT 120V210 9999 -SHRA FEW010 BKN068 15/12 Q1011 TEMPO SHRA BKN020 FEW030CB